Time;durP1;ratioP1;P1;durP2;ratioP2;P2;SDS_P1;SDS_P2;PMS_P1;PMS_P2;Temp;Humidity;BMP_temperature;BMP_pressure;BME280_temperature;BME280_humidity;BME280_pressure;Samples;Min_cycle;Max_cycle;Signal;HPM_P1;HPM_P2
2022/09/23 00:00:58;;;;;;;2.33;1.47;;;;;;;8.57;77.45;98842.50;4984180;28;20218;-55
2022/09/23 00:03:27;;;;;;;3.30;1.70;;;;;;;8.49;77.59;98838.91;4988386;28;20225;-56
2022/09/23 00:05:58;;;;;;;2.37;1.77;;;;;;;8.45;78.81;98843.53;4984146;28;20229;-53
2022/09/23 00:08:25;;;;;;;3.30;2.00;;;;;;;8.40;78.73;98838.72;4986084;28;20223;-55
2022/09/23 00:10:51;;;;;;;9.80;2.87;;;;;;;8.42;78.91;98834.22;4983033;28;21146;-56
2022/09/23 00:13:18;;;;;;;2.87;1.70;;;;;;;8.38;78.99;98840.66;4985574;28;20223;-55
2022/09/23 00:15:45;;;;;;;4.07;1.97;;;;;;;8.30;78.83;98831.84;4984457;28;20240;-55
2022/09/23 00:18:13;;;;;;;2.53;1.70;;;;;;;8.27;80.28;98836.34;4986489;28;20276;-55
2022/09/23 00:20:40;;;;;;;2.87;1.87;;;;;;;8.30;80.71;98843.06;4986206;28;20270;-55
2022/09/23 00:23:07;;;;;;;2.67;1.60;;;;;;;8.22;80.78;98842.91;4986073;28;20234;-55
2022/09/23 00:25:34;;;;;;;2.43;1.70;;;;;;;8.18;80.82;98838.91;4988538;28;20335;-54
2022/09/23 00:28:02;;;;;;;4.30;1.83;;;;;;;8.20;81.14;98837.00;4984192;28;20243;-55
2022/09/23 00:30:29;;;;;;;2.87;2.50;;;;;;;8.17;81.79;98835.47;4984820;28;20709;-54
2022/09/23 00:32:56;;;;;;;3.73;1.63;;;;;;;8.11;82.25;98842.03;4982226;28;20239;-56
2022/09/23 00:35:25;;;;;;;2.10;1.90;;;;;;;8.08;83.46;98847.50;4984243;28;20709;-55
2022/09/23 00:37:52;;;;;;;2.13;1.57;;;;;;;8.11;84.35;98844.63;4983467;28;20310;-56
2022/09/23 00:40:18;;;;;;;3.87;1.93;;;;;;;8.06;84.49;98840.75;4985980;28;20568;-54
2022/09/23 00:42:47;;;;;;;4.30;1.90;;;;;;;8.02;85.22;98836.75;4981030;28;20246;-56
2022/09/23 00:45:15;;;;;;;3.50;2.10;;;;;;;8.01;84.22;98837.72;4986719;28;20237;-55
2022/09/23 00:47:46;;;;;;;2.77;1.80;;;;;;;8.02;83.98;98837.59;4993112;28;20225;-54
2022/09/23 00:50:22;;;;;;;4.50;1.80;;;;;;;7.92;84.09;98845.38;4985210;28;20702;-54
2022/09/23 00:52:52;;;;;;;4.57;1.97;;;;;;;7.89;84.83;98829.19;4985838;28;20653;-54
2022/09/23 00:55:24;;;;;;;2.03;1.60;;;;;;;7.77;84.55;98834.44;4987318;28;20752;-55
2022/09/23 00:57:54;;;;;;;3.60;1.80;;;;;;;7.70;84.93;98830.72;4984480;28;20240;-52
2022/09/23 01:00:22;;;;;;;5.67;1.77;;;;;;;7.76;86.42;98840.59;4986820;28;20608;-55
2022/09/23 01:02:49;;;;;;;6.10;2.00;;;;;;;7.80;85.56;98830.78;4979494;28;20273;-56
2022/09/23 01:05:17;;;;;;;4.17;1.70;;;;;;;7.74;85.70;98833.91;4982246;28;20332;-54
2022/09/23 01:07:43;;;;;;;2.70;1.90;;;;;;;7.67;86.64;98824.00;4984666;28;20225;-55
2022/09/23 01:10:13;;;;;;;5.03;2.00;;;;;;;7.69;86.26;98826.47;4984718;28;20236;-54
2022/09/23 01:13:14;;;;;;;6.97;1.80;;;;;;;7.74;86.40;98834.72;4982619;28;20321;-55
2022/09/23 01:15:48;;;;;;;5.97;1.93;;;;;;;7.72;86.34;98839.22;4989328;28;20234;-54
2022/09/23 01:18:28;;;;;;;3.80;1.67;;;;;;;7.65;86.40;98836.31;4984349;28;20244;-56
2022/09/23 01:21:18;;;;;;;2.57;1.80;;;;;;;7.57;86.19;98833.50;4984386;28;20257;-56
2022/09/23 01:24:17;;;;;;;4.67;2.13;;;;;;;7.55;86.56;98830.22;4981765;28;20226;-56
2022/09/23 01:26:56;;;;;;;4.17;2.20;;;;;;;7.51;86.80;98823.63;4989201;28;20315;-56
2022/09/23 01:29:58;;;;;;;3.90;2.43;;;;;;;7.43;87.62;98828.63;4988648;28;20221;-55
2022/09/23 01:32:36;;;;;;;4.63;2.40;;;;;;;7.39;87.30;98815.09;4982228;28;20221;-55
2022/09/23 01:35:10;;;;;;;5.37;2.50;;;;;;;7.33;88.50;98825.97;4984473;28;20235;-56
2022/09/23 01:37:47;;;;;;;4.10;2.20;;;;;;;7.37;88.53;98819.56;4987775;28;20217;-55
2022/09/23 01:40:20;;;;;;;3.67;2.27;;;;;;;7.34;89.35;98820.63;4982617;28;20256;-53
2022/09/23 01:42:53;;;;;;;3.10;2.10;;;;;;;7.35;89.22;98824.06;4982016;28;20228;-55
2022/09/23 01:45:25;;;;;;;4.00;2.37;;;;;;;7.35;89.51;98821.47;4985339;28;20236;-56
2022/09/23 01:47:56;;;;;;;4.20;2.23;;;;;;;7.30;89.54;98821.03;4983280;28;20241;-55
2022/09/23 01:53:20;;;;;;;3.30;2.20;;;;;;;7.20;89.88;98818.34;4983143;28;20241;-54
2022/09/23 01:55:51;;;;;;;5.97;2.23;;;;;;;7.15;90.68;98829.09;4982541;28;20224;-55
2022/09/23 01:58:24;;;;;;;2.73;2.20;;;;;;;7.13;90.56;98824.97;4984649;28;20229;-54
2022/09/23 02:00:57;;;;;;;3.20;2.03;;;;;;;7.08;90.65;98822.75;4981274;28;20232;-56
2022/09/23 02:03:31;;;;;;;5.10;2.33;;;;;;;7.04;91.25;98822.16;4985954;28;20225;-56
2022/09/23 02:06:04;;;;;;;2.87;1.93;;;;;;;7.06;91.39;98819.47;4983803;28;20224;-54
2022/09/23 02:08:35;;;;;;;2.40;2.20;;;;;;;7.04;91.97;98822.16;4984947;28;20233;-56
2022/09/23 02:11:07;;;;;;;4.17;2.57;;;;;;;7.01;91.66;98824.19;4985251;28;20217;-56
2022/09/23 02:13:41;;;;;;;4.77;2.30;;;;;;;6.97;92.22;98818.41;4985107;28;23516;-54
2022/09/23 02:16:12;;;;;;;5.27;2.73;;;;;;;7.00;91.86;98817.34;4985056;28;20247;-56
2022/09/23 02:18:47;;;;;;;4.73;2.27;;;;;;;6.99;91.86;98813.91;4985419;28;20221;-56
2022/09/23 02:21:15;;;;;;;3.00;2.13;;;;;;;6.93;92.40;98817.84;4981724;28;20234;-55
2022/09/23 02:23:44;;;;;;;4.40;2.13;;;;;;;6.92;92.88;98813.59;4984951;28;20267;-55
2022/09/23 02:26:18;;;;;;;5.17;2.60;;;;;;;6.91;93.21;98809.34;4983522;28;20336;-56
2022/09/23 02:28:52;;;;;;;3.67;2.53;;;;;;;6.91;93.17;98808.53;4982694;28;20244;-56
2022/09/23 02:31:27;;;;;;;2.97;2.30;;;;;;;6.91;93.37;98809.34;4985637;28;20232;-55
2022/09/23 02:34:00;;;;;;;5.17;2.47;;;;;;;6.90;92.58;98806.88;4983710;28;20237;-54
2022/09/23 02:36:31;;;;;;;4.10;2.43;;;;;;;6.89;93.04;98818.22;4988186;28;20233;-54
2022/09/23 02:39:03;;;;;;;3.63;2.30;;;;;;;6.91;93.98;98809.34;4986983;28;20218;-55
2022/09/23 02:41:36;;;;;;;3.57;2.60;;;;;;;6.87;93.60;98807.97;4989442;28;20717;-55
2022/09/23 02:44:07;;;;;;;2.97;2.57;;;;;;;6.84;93.75;98802.19;4985354;28;20224;-53
2022/09/23 02:46:35;;;;;;;3.80;2.40;;;;;;;6.82;93.80;98799.72;4987053;28;20465;-56
2022/09/23 02:49:09;;;;;;;9.57;2.30;;;;;;;6.81;93.99;98792.88;4987049;28;20233;-56
2022/09/23 02:51:37;;;;;;;3.63;2.50;;;;;;;6.75;94.19;98791.59;4990055;28;20223;-55
2022/09/23 02:54:06;;;;;;;3.00;2.13;;;;;;;6.75;94.79;98783.81;4989801;28;20222;-56
2022/09/23 02:56:33;;;;;;;5.03;2.20;;;;;;;6.74;94.17;98778.75;4989695;28;20691;-56
2022/09/23 02:59:00;;;;;;;5.10;2.70;;;;;;;6.70;95.15;98782.53;4986739;28;20217;-55
2022/09/23 03:04:17;;;;;;;3.90;2.20;;;;;;;6.73;96.23;98771.91;5568063;23;20279;-53
2022/09/23 03:06:56;;;;;;;6.07;2.60;;;;;;;6.72;96.88;98776.28;4996098;28;20236;-55
2022/09/23 03:09:29;;;;;;;4.37;2.40;;;;;;;6.68;96.57;98768.84;5007479;28;20232;-54
2022/09/23 03:12:09;;;;;;;4.07;2.07;;;;;;;6.66;96.76;98776.78;5006113;28;20227;-53
2022/09/23 03:14:43;;;;;;;4.57;2.50;;;;;;;6.68;96.89;98781.81;4996387;28;20234;-53
2022/09/23 03:17:14;;;;;;;3.00;2.20;;;;;;;6.65;96.32;98775.13;4992351;28;20236;-53
2022/09/23 03:19:49;;;;;;;4.43;2.40;;;;;;;6.65;97.50;98778.53;4992819;28;20221;-54
2022/09/23 03:22:21;;;;;;;4.50;2.10;;;;;;;6.60;97.52;98780.66;4989435;28;20239;-52
2022/09/23 03:24:50;;;;;;;9.27;2.50;;;;;;;6.60;97.33;98774.66;4990810;28;20252;-55
2022/09/23 03:27:22;;;;;;;5.20;2.40;;;;;;;6.63;97.95;98777.81;5001055;28;20602;-54
2022/09/23 03:29:52;;;;;;;6.10;2.70;;;;;;;6.63;97.65;98777.81;4992383;28;20240;-52
2022/09/23 03:32:22;;;;;;;3.33;2.63;;;;;;;6.59;97.83;98779.00;4996716;28;20812;-53
2022/09/23 03:34:54;;;;;;;2.60;2.40;;;;;;;6.58;97.48;98779.97;4991497;28;20236;-52
2022/09/23 03:37:25;;;;;;;4.17;2.90;;;;;;;6.52;97.07;98775.25;4997058;28;20229;-55
2022/09/23 03:39:56;;;;;;;6.20;2.60;;;;;;;6.49;96.93;98775.50;4989656;28;20646;-52
2022/09/23 03:42:25;;;;;;;3.37;2.27;;;;;;;6.46;97.62;98773.16;4993787;28;20231;-55
2022/09/23 03:44:55;;;;;;;5.07;2.50;;;;;;;6.47;98.84;98779.97;4992525;28;20224;-54
2022/09/23 03:47:22;;;;;;;3.70;2.30;;;;;;;6.46;98.48;98773.97;4995501;28;20712;-55
2022/09/23 03:49:51;;;;;;;4.50;2.77;;;;;;;6.43;98.63;98771.63;4994342;28;20241;-53
2022/09/23 03:52:21;;;;;;;4.83;2.37;;;;;;;6.49;99.72;98762.53;4990213;28;20233;-52
2022/09/23 03:54:48;;;;;;;4.70;2.80;;;;;;;6.48;99.29;98774.69;4992447;28;20636;-54
2022/09/23 03:57:15;;;;;;;5.33;2.80;;;;;;;6.52;99.68;98764.88;5001096;28;20732;-54
2022/09/23 03:59:42;;;;;;;4.87;2.90;;;;;;;6.52;99.03;98770.06;4997990;28;20721;-54
2022/09/23 04:02:09;;;;;;;7.13;3.00;;;;;;;6.52;99.51;98767.47;4993066;28;20248;-53
2022/09/23 04:04:39;;;;;;;3.07;2.70;;;;;;;6.52;99.36;98766.66;4991370;28;20443;-54
2022/09/23 04:07:07;;;;;;;8.43;2.70;;;;;;;6.54;99.12;98769.97;4994556;28;20587;-52
2022/09/23 04:09:33;;;;;;;6.13;2.63;;;;;;;6.56;98.98;98765.47;4994460;28;20311;-54
2022/09/23 04:12:00;;;;;;;3.63;2.60;;;;;;;6.55;99.69;98764.63;4993620;28;20240;-54
2022/09/23 04:14:27;;;;;;;4.03;2.70;;;;;;;6.52;99.98;98762.28;4992458;28;20241;-51
2022/09/23 04:16:54;;;;;;;5.33;2.57;;;;;;;6.48;100.00;98766.91;4988024;28;20680;-52
2022/09/23 04:19:20;;;;;;;3.53;2.80;;;;;;;6.47;99.88;98767.00;4994998;28;20295;-54
2022/09/23 04:21:47;;;;;;;4.73;2.93;;;;;;;6.43;100.00;98768.19;4992430;28;20295;-54
2022/09/23 04:24:16;;;;;;;6.20;3.27;;;;;;;6.43;100.00;98779.41;4997228;28;20236;-53
2022/09/23 04:26:44;;;;;;;4.17;2.97;;;;;;;6.44;100.00;98780.22;4995235;28;20246;-54
2022/09/23 04:29:11;;;;;;;5.83;3.33;;;;;;;6.43;100.00;98781.16;4995220;28;20247;-54
2022/09/23 04:31:38;;;;;;;5.90;3.10;;;;;;;6.41;100.00;98776.13;4993670;28;20292;-55
2022/09/23 04:34:05;;;;;;;8.13;2.97;;;;;;;6.39;100.00;98782.34;4985213;28;20720;-54
2022/09/23 04:36:32;;;;;;;3.73;2.80;;;;;;;6.34;100.00;98782.72;4997603;28;20228;-52
2022/09/23 04:38:59;;;;;;;3.67;3.00;;;;;;;6.34;100.00;98777.53;4991870;28;20574;-52
2022/09/23 04:41:27;;;;;;;16.47;3.27;;;;;;;6.28;100.00;98783.19;4993536;28;20801;-54
2022/09/23 04:44:13;;;;;;;6.23;3.10;;;;;;;6.24;100.00;98786.97;4993763;28;20669;-54
2022/09/23 04:46:41;;;;;;;5.47;2.80;;;;;;;6.21;100.00;98788.03;4993871;28;20217;-53
2022/09/23 04:49:07;;;;;;;4.47;3.20;;;;;;;6.29;100.00;98779.66;4991744;28;20566;-55
2022/09/23 04:51:34;;;;;;;8.23;3.80;;;;;;;6.34;100.00;98785.31;4996625;28;20234;-54
2022/09/23 04:54:01;;;;;;;11.80;8.50;;;;;;;6.35;100.00;98786.97;4991588;28;20244;-53
2022/09/23 04:56:32;;;;;;;10.13;5.87;;;;;;;6.38;100.00;98789.31;4991479;28;20232;-53
2022/09/23 04:59:00;;;;;;;6.83;4.00;;;;;;;6.41;100.00;98785.66;4993760;28;20662;-54
2022/09/23 05:01:29;;;;;;;4.00;2.93;;;;;;;6.43;100.00;98786.34;4994483;28;20287;-55
2022/09/23 05:04:04;;;;;;;7.70;3.33;;;;;;;6.52;100.00;98782.22;4988485;28;20243;-54
2022/09/23 05:06:33;;;;;;;7.03;3.53;;;;;;;6.53;100.00;98789.88;4994026;28;20380;-54
2022/09/23 05:09:01;;;;;;;4.00;3.13;;;;;;;6.64;100.00;98779.47;4992130;28;20262;-53
2022/09/23 05:11:30;;;;;;;4.07;2.87;;;;;;;6.66;100.00;98787.16;4989871;28;20770;-54
2022/09/23 05:13:57;;;;;;;4.33;3.00;;;;;;;6.67;100.00;98775.00;4988867;28;20712;-54
2022/09/23 05:16:25;;;;;;;7.50;3.47;;;;;;;6.67;100.00;98787.97;4991429;28;20245;-55
2022/09/23 05:18:52;;;;;;;6.33;4.30;;;;;;;6.73;100.00;98787.47;4989752;28;20873;-53
2022/09/23 05:21:22;;;;;;;6.90;3.30;;;;;;;6.78;100.00;98782.75;4997245;28;20304;-53
2022/09/23 05:23:51;;;;;;;9.13;4.50;;;;;;;6.88;100.00;98780.25;4987154;28;20728;-54
2022/09/23 05:26:17;;;;;;;7.60;4.30;;;;;;;6.89;100.00;98776.72;4988776;28;20324;-53
2022/09/23 05:28:54;;;;;;;8.93;3.40;;;;;;;6.90;100.00;98779.16;4992360;28;20238;-54
2022/09/23 05:31:22;;;;;;;5.77;3.37;;;;;;;6.95;100.00;98778.78;4984842;28;20229;-53
2022/09/23 05:33:51;;;;;;;4.77;2.97;;;;;;;6.98;100.00;98785.50;4990750;28;20696;-53
2022/09/23 05:36:19;;;;;;;9.50;3.30;;;;;;;7.02;100.00;98786.91;4997283;28;20252;-52
2022/09/23 05:38:48;;;;;;;5.40;2.60;;;;;;;7.12;100.00;98776.59;4991205;28;20232;-53
2022/09/23 05:41:14;;;;;;;4.30;2.73;;;;;;;7.21;100.00;98778.44;4994256;28;20840;-55
2022/09/23 05:43:42;;;;;;;6.67;3.30;;;;;;;7.32;100.00;98788.78;4994906;28;20244;-53
2022/09/23 05:46:30;;;;;;;5.37;2.90;;;;;;;7.40;100.00;98788.16;4989050;28;20231;-55
2022/09/23 05:48:58;;;;;;;3.37;3.00;;;;;;;7.47;100.00;98788.47;5003798;28;20229;-55
2022/09/23 05:51:26;;;;;;;10.30;7.70;;;;;;;7.58;100.00;98790.16;4995766;28;20231;-51
2022/09/23 05:53:57;;;;;;;11.77;6.50;;;;;;;7.63;100.00;98788.84;4989830;28;20239;-54
2022/09/23 05:56:25;;;;;;;9.60;7.23;;;;;;;7.73;100.00;98788.09;4995772;28;20224;-52
2022/09/23 05:58:55;;;;;;;10.33;7.20;;;;;;;7.79;100.00;98790.97;4988731;28;20252;-52
2022/09/23 06:01:23;;;;;;;7.97;6.27;;;;;;;7.85;100.00;98792.25;4995299;28;20264;-52
2022/09/23 06:03:52;;;;;;;9.97;5.37;;;;;;;7.94;100.00;98781.06;4989232;28;20241;-53
2022/09/23 06:06:21;;;;;;;13.70;9.57;;;;;;;8.05;100.00;98785.34;4992403;28;20233;-55
2022/09/23 06:08:50;;;;;;;9.70;7.30;;;;;;;8.15;99.51;98787.97;4987878;28;20360;-55
2022/09/23 06:11:17;;;;;;;8.03;6.00;;;;;;;8.24;99.02;98781.19;4989673;28;20224;-52
2022/09/23 06:14:03;;;;;;;7.80;5.70;;;;;;;8.35;99.17;98780.25;4994244;28;20296;-55
2022/09/23 06:16:32;;;;;;;7.77;5.80;;;;;;;8.46;98.46;98782.75;4995288;28;20288;-54
2022/09/23 06:19:04;;;;;;;7.33;4.90;;;;;;;8.56;98.41;98778.41;4994090;28;20234;-55
2022/09/23 06:21:33;;;;;;;6.03;4.20;;;;;;;8.65;97.51;98779.38;5001862;28;20265;-55
2022/09/23 06:24:00;;;;;;;5.00;3.40;;;;;;;8.76;96.98;98778.44;4995818;28;20230;-54
2022/09/23 06:26:32;;;;;;;4.00;3.50;;;;;;;8.88;96.26;98779.13;4999802;28;20264;-52
2022/09/23 06:29:01;;;;;;;8.70;4.63;;;;;;;8.97;96.18;98782.72;4996832;28;20234;-55
2022/09/23 06:31:27;;;;;;;8.83;6.27;;;;;;;9.07;96.11;98787.91;5003323;28;20704;-53
2022/09/23 06:33:54;;;;;;;8.30;6.23;;;;;;;9.14;95.00;98781.19;4995522;28;20234;-54
2022/09/23 06:36:22;;;;;;;12.27;6.30;;;;;;;9.18;94.50;98779.97;5001388;28;20243;-55
2022/09/23 06:38:50;;;;;;;8.13;5.93;;;;;;;9.25;94.15;98782.81;4992613;28;20419;-53
2022/09/23 06:41:19;;;;;;;7.63;5.77;;;;;;;9.30;93.82;98781.47;4996726;28;20230;-55
2022/09/23 06:44:04;;;;;;;8.40;5.90;;;;;;;9.38;93.87;98783.34;4995930;28;20284;-55
2022/09/23 06:46:31;;;;;;;7.60;6.00;;;;;;;9.42;93.36;98784.72;4998300;28;20235;-52
2022/09/23 06:48:58;;;;;;;10.43;6.27;;;;;;;9.43;92.73;98794.19;4994951;28;20228;-54
2022/09/23 06:51:26;;;;;;;8.47;5.87;;;;;;;9.47;92.71;98791.31;4994260;28;20236;-54
2022/09/23 06:53:54;;;;;;;8.13;5.53;;;;;;;9.50;92.71;98793.63;4989819;28;20283;-55
2022/09/23 06:56:21;;;;;;;11.53;5.47;;;;;;;9.54;92.85;98790.59;4993100;28;20228;-54
2022/09/23 06:58:49;;;;;;;13.13;6.57;;;;;;;9.60;93.24;98795.25;4991321;28;20267;-53
2022/09/23 07:01:16;;;;;;;13.00;8.00;;;;;;;9.65;92.68;98799.22;4995911;28;20228;-53
2022/09/23 07:03:44;;;;;;;11.27;8.00;;;;;;;9.71;91.53;98802.09;4989993;28;20255;-55
2022/09/23 07:06:11;;;;;;;11.00;7.53;;;;;;;9.77;91.76;98802.50;4988114;28;20231;-54
2022/09/23 07:08:42;;;;;;;11.20;6.60;;;;;;;9.86;91.90;98805.06;4992253;28;20243;-53
2022/09/23 07:11:11;;;;;;;9.57;5.80;;;;;;;9.92;91.35;98811.50;4992374;28;20339;-55
2022/09/23 07:13:39;;;;;;;8.27;5.27;;;;;;;9.98;89.92;98805.72;4991049;28;20704;-53
2022/09/23 07:16:06;;;;;;;12.80;5.57;;;;;;;10.07;90.44;98811.06;4989628;28;20237;-55
2022/09/23 07:18:35;;;;;;;9.23;5.00;;;;;;;10.13;89.34;98813.91;4994463;28;20308;-54
2022/09/23 07:21:06;;;;;;;8.60;5.33;;;;;;;10.19;89.45;98815.09;4990239;28;20258;-53
2022/09/23 07:23:33;;;;;;;9.07;5.60;;;;;;;10.25;88.27;98816.34;4996870;28;20256;-52
2022/09/23 07:26:02;;;;;;;6.40;4.70;;;;;;;10.31;88.38;98813.16;4989003;28;20777;-52
2022/09/23 07:28:29;;;;;;;8.77;5.77;;;;;;;10.39;87.50;98810.66;4988949;28;20247;-51
2022/09/23 07:30:56;;;;;;;7.90;5.80;;;;;;;10.46;87.75;98811.75;4988988;28;20302;-54
2022/09/23 07:33:23;;;;;;;8.97;6.03;;;;;;;10.53;87.43;98813.75;4994315;28;20234;-53
2022/09/23 07:35:49;;;;;;;8.30;6.43;;;;;;;10.60;87.69;98820.84;4992944;28;20224;-51
2022/09/23 07:38:16;;;;;;;13.17;6.73;;;;;;;10.64;87.24;98821.38;4993406;28;20270;-54
2022/09/23 07:40:43;;;;;;;8.83;6.70;;;;;;;10.74;87.26;98824.75;4994194;28;20247;-54
2022/09/23 07:43:12;;;;;;;9.83;6.57;;;;;;;10.83;86.58;98825.66;4987633;28;20244;-56
2022/09/23 07:45:42;;;;;;;9.63;6.10;;;;;;;10.95;85.52;98822.84;4991287;28;20268;-55
2022/09/23 07:48:09;;;;;;;8.20;5.00;;;;;;;11.00;84.67;98829.25;4993210;28;20227;-56
2022/09/23 07:50:39;;;;;;;7.03;4.60;;;;;;;11.07;84.17;98826.88;4993302;28;20685;-53
2022/09/23 07:53:06;;;;;;;8.23;5.03;;;;;;;11.14;83.32;98834.94;4988782;28;20264;-56
2022/09/23 07:55:33;;;;;;;7.90;3.73;;;;;;;11.22;84.36;98835.00;4992356;28;20247;-55
2022/09/23 07:58:00;;;;;;;4.27;3.60;;;;;;;11.27;81.73;98840.59;4989658;28;20229;-55
2022/09/23 08:00:43;;;;;;;6.53;3.60;;;;;;;11.30;81.20;98836.84;4997840;28;20246;-51
2022/09/23 08:03:10;;;;;;;5.27;4.07;;;;;;;11.28;79.00;98839.63;4994347;28;20244;-54
2022/09/23 08:05:37;;;;;;;7.23;4.30;;;;;;;11.23;78.93;98845.28;4999332;28;20705;-53
2022/09/23 08:08:06;;;;;;;11.40;5.40;;;;;;;11.21;77.56;98844.63;4993777;28;20227;-54
2022/09/23 08:10:33;;;;;;;11.10;6.67;;;;;;;11.07;77.97;98848.59;4995459;28;20239;-55
2022/09/23 08:13:02;;;;;;;11.63;6.23;;;;;;;11.03;79.11;98854.28;4994078;28;20232;-52
2022/09/23 08:15:30;;;;;;;11.33;6.83;;;;;;;10.99;79.19;98856.34;4997224;28;20233;-53
2022/09/23 08:18:00;;;;;;;9.23;6.57;;;;;;;10.92;79.87;98852.69;4990907;28;20305;-51
2022/09/23 08:20:46;;;;;;;9.67;7.43;;;;;;;10.92;81.62;98850.06;4992106;28;20434;-52
2022/09/23 08:23:13;;;;;;;10.43;6.70;;;;;;;11.03;80.67;98851.66;4991381;28;20264;-51
2022/09/23 08:25:40;;;;;;;12.57;7.80;;;;;;;11.21;80.26;98854.28;5003261;28;20234;-54
2022/09/23 08:28:07;;;;;;;12.33;8.07;;;;;;;11.21;81.02;98843.81;4993455;28;20794;-53
2022/09/23 08:30:34;;;;;;;15.90;7.30;;;;;;;11.41;79.45;98851.50;4994855;28;20334;-52
2022/09/23 08:33:01;;;;;;;15.77;8.23;;;;;;;11.50;79.17;98842.75;4990946;28;20224;-54
2022/09/23 08:35:29;;;;;;;19.93;11.40;;;;;;;11.66;78.99;98849.91;4993455;28;20343;-54
2022/09/23 08:37:55;;;;;;;16.13;8.30;;;;;;;11.82;78.79;98842.16;4992184;28;20224;-54
2022/09/23 08:40:24;;;;;;;16.50;6.77;;;;;;;12.01;77.82;98842.13;4991276;28;20230;-51
2022/09/23 08:42:50;;;;;;;17.37;7.40;;;;;;;12.20;76.47;98843.69;4988739;28;20243;-51
2022/09/23 08:45:23;;;;;;;16.50;9.73;;;;;;;12.30;74.59;98847.03;4996180;28;20702;-51
2022/09/23 08:47:55;;;;;;;8.23;5.83;;;;;;;12.21;73.74;98843.56;4995117;28;20244;-54
2022/09/23 08:50:26;;;;;;;11.13;6.70;;;;;;;12.28;73.97;98846.34;4993978;28;20246;-54
2022/09/23 08:52:57;;;;;;;11.73;6.00;;;;;;;12.31;73.94;98837.38;4988326;28;20331;-53
2022/09/23 08:55:33;;;;;;;10.70;6.03;;;;;;;12.30;73.41;98846.22;4995953;28;20234;-54
2022/09/23 08:58:08;;;;;;;10.57;6.43;;;;;;;12.18;74.01;98843.88;4992664;28;20253;-54
2022/09/23 09:00:40;;;;;;;9.57;6.03;;;;;;;12.22;74.24;98841.75;4995591;28;20687;-54
2022/09/23 09:03:20;;;;;;;9.20;5.80;;;;;;;12.36;74.23;98840.38;4988975;28;20755;-54
2022/09/23 09:05:50;;;;;;;9.13;5.27;;;;;;;12.44;72.72;98843.00;4988462;28;20322;-54
2022/09/23 09:08:24;;;;;;;9.40;5.60;;;;;;;12.58;73.02;98835.53;4990979;28;20227;-54
2022/09/23 09:10:55;;;;;;;11.60;5.50;;;;;;;12.69;71.80;98827.41;4988072;28;20238;-52
2022/09/23 09:13:31;;;;;;;6.83;5.30;;;;;;;12.69;71.94;98830.81;4988846;28;20272;-54
2022/09/23 09:16:13;;;;;;;8.93;6.10;;;;;;;12.69;73.13;98830.81;4989501;28;20370;-53
2022/09/23 09:18:48;;;;;;;9.20;5.50;;;;;;;12.75;72.92;98831.16;4995486;28;20288;-54
2022/09/23 09:21:41;;;;;;;9.70;6.23;;;;;;;12.78;72.83;98826.41;4989355;28;20242;-59
2022/09/23 09:24:17;;;;;;;8.43;5.53;;;;;;;12.83;70.69;98829.38;4982107;28;20624;-56
2022/09/23 09:26:44;;;;;;;7.27;4.90;;;;;;;12.94;70.98;98832.66;4993449;28;20239;-55
2022/09/23 09:29:15;;;;;;;7.33;5.00;;;;;;;12.98;71.18;98831.38;4996119;28;20228;-56
2022/09/23 09:31:43;;;;;;;7.90;5.03;;;;;;;12.93;71.01;98828.41;4997302;28;20226;-55
2022/09/23 09:34:19;;;;;;;7.17;4.47;;;;;;;12.96;70.68;98823.69;4992780;28;20250;-56
2022/09/23 09:36:53;;;;;;;7.20;4.77;;;;;;;13.10;69.52;98821.41;4991914;28;20233;-56
2022/09/23 09:39:20;;;;;;;7.17;4.27;;;;;;;13.23;68.94;98820.91;4995596;28;20272;-55
2022/09/23 09:41:49;;;;;;;7.70;4.17;;;;;;;13.25;69.47;98817.13;4991600;28;20285;-56
2022/09/23 09:44:23;;;;;;;6.23;4.37;;;;;;;13.25;68.90;98811.09;4993437;28;20605;-53
2022/09/23 09:47:06;;;;;;;8.87;4.47;;;;;;;13.27;68.49;98812.53;4992885;28;20236;-55
2022/09/23 09:49:40;;;;;;;5.70;4.20;;;;;;;13.43;68.74;98814.41;4995464;28;20261;-53
2022/09/23 09:52:22;;;;;;;6.87;4.07;;;;;;;13.58;68.69;98803.25;4993694;28;20231;-53
2022/09/23 09:54:50;;;;;;;6.10;4.33;;;;;;;13.73;67.75;98803.38;4991767;28;20227;-53
2022/09/23 09:57:30;;;;;;;5.57;4.07;;;;;;;13.73;67.64;98803.38;4995903;28;20229;-53
2022/09/23 09:59:57;;;;;;;5.60;4.17;;;;;;;13.77;65.33;98809.13;4993758;28;20231;-56
2022/09/23 10:02:30;;;;;;;5.63;4.27;;;;;;;13.65;66.43;98806.00;4994633;28;20230;-53
2022/09/23 10:05:01;;;;;;;5.67;4.00;;;;;;;13.88;66.55;98808.75;4993444;28;20229;-55
2022/09/23 10:07:31;;;;;;;11.00;4.30;;;;;;;13.91;65.83;98811.03;4995437;28;20243;-54
2022/09/23 10:10:11;;;;;;;7.10;4.30;;;;;;;13.99;65.89;98802.34;4994556;28;20338;-56
2022/09/23 10:12:45;;;;;;;5.20;4.23;;;;;;;14.12;65.62;98797.38;4992445;28;21121;-52
2022/09/23 10:15:29;;;;;;;7.67;4.20;;;;;;;14.15;66.04;98794.41;4992224;28;20228;-53
2022/09/23 10:18:00;;;;;;;7.47;4.03;;;;;;;14.29;64.88;98790.25;4989164;28;20247;-55
2022/09/23 10:20:35;;;;;;;9.63;4.03;;;;;;;14.38;64.59;98790.22;4993520;28;20233;-55
2022/09/23 10:23:13;;;;;;;7.53;3.87;;;;;;;14.45;64.47;98786.72;4990564;28;20237;-55
2022/09/23 10:25:40;;;;;;;8.97;4.30;;;;;;;14.55;63.35;98783.88;4993482;28;20245;-53
2022/09/23 10:28:49;;;;;;;12.37;4.40;;;;;;;14.65;63.36;98778.41;4993195;28;20268;-52
2022/09/23 10:31:23;;;;;;;8.00;4.33;;;;;;;14.64;62.93;98774.13;4992247;28;20901;-53
2022/09/23 10:33:54;;;;;;;5.83;4.13;;;;;;;14.70;64.09;98772.69;4993600;28;20240;-53
2022/09/23 10:36:21;;;;;;;7.47;3.83;;;;;;;14.86;63.35;98767.28;4996069;28;20242;-52
2022/09/23 10:38:54;;;;;;;8.10;4.30;;;;;;;15.02;61.89;98769.00;4993545;28;20238;-55
2022/09/23 10:47:31;;;;;;;5.97;4.23;;;;;;;15.26;60.15;98766.34;4994396;28;20334;-56
2022/09/23 10:50:14;;;;;;;5.57;4.10;;;;;;;15.33;59.43;98773.34;4989438;28;20235;-52
2022/09/23 10:52:52;;;;;;;8.57;4.60;;;;;;;15.41;60.15;98761.09;4996563;28;20228;-53
2022/09/23 10:55:33;;;;;;;8.20;4.73;;;;;;;15.48;60.35;98762.84;4992805;28;20238;-54
2022/09/23 10:58:13;;;;;;;6.20;4.17;;;;;;;15.71;60.17;98769.88;4993486;28;20262;-52
2022/09/23 11:00:50;;;;;;;6.20;4.53;;;;;;;15.84;59.37;98768.41;4995486;28;20233;-55
2022/09/23 11:03:53;;;;;;;5.80;4.93;;;;;;;15.91;58.99;98766.69;4990173;28;20236;-52
2022/09/23 11:06:30;;;;;;;7.83;4.70;;;;;;;16.14;57.66;98768.41;4990791;28;20237;-55
2022/09/23 11:09:11;;;;;;;7.27;4.67;;;;;;;16.33;56.94;98767.03;4991007;28;20238;-53
2022/09/23 11:11:52;;;;;;;7.10;4.50;;;;;;;16.33;58.09;98770.47;4999365;28;20233;-56
2022/09/23 11:14:44;;;;;;;6.43;4.73;;;;;;;16.36;56.54;98766.69;4993016;28;20251;-56
2022/09/23 11:17:28;;;;;;;7.43;5.03;;;;;;;16.53;56.47;98762.78;4997373;28;20236;-55
2022/09/23 11:20:23;;;;;;;7.47;4.27;;;;;;;16.66;56.46;98764.78;4994986;28;20269;-53
2022/09/23 11:23:07;;;;;;;5.77;4.33;;;;;;;16.84;56.93;98763.53;4992640;28;20313;-56
2022/09/23 11:25:49;;;;;;;7.43;4.00;;;;;;;16.91;57.17;98753.88;4996440;28;20266;-54
2022/09/23 11:28:44;;;;;;;5.63;4.47;;;;;;;17.06;56.05;98751.19;4989159;28;20232;-55
2022/09/23 11:31:24;;;;;;;4.80;3.87;;;;;;;17.17;53.94;98755.09;4985103;28;20240;-55
2022/09/23 11:34:04;;;;;;;6.13;4.20;;;;;;;17.07;55.56;98754.63;4993714;28;20236;-55
2022/09/23 11:36:34;;;;;;;6.63;4.50;;;;;;;16.92;55.72;98744.94;4998563;28;20246;-56
2022/09/23 11:39:09;;;;;;;7.83;4.20;;;;;;;17.14;56.60;98744.94;4991159;28;20281;-55
2022/09/23 11:41:39;;;;;;;5.90;4.00;;;;;;;17.56;55.31;98740.59;4999299;28;20568;-55
2022/09/23 11:44:14;;;;;;;7.43;4.00;;;;;;;17.78;54.22;98737.03;4984087;28;22881;-56
2022/09/23 11:46:45;;;;;;;6.23;4.33;;;;;;;17.88;52.92;98732.22;4992147;28;20229;-58
2022/09/23 11:49:18;;;;;;;9.10;4.23;;;;;;;17.89;53.88;98730.41;4988348;28;20628;-58
2022/09/23 11:52:03;;;;;;;5.97;4.00;;;;;;;18.07;52.86;98738.63;4998977;28;20240;-55
2022/09/23 11:54:35;;;;;;;7.73;4.23;;;;;;;18.00;53.47;98725.41;4996315;28;20296;-59
2022/09/23 11:59:54;;;;;;;6.73;3.40;;;;;;;18.37;53.82;98724.31;5591893;23;20657;-57
2022/09/23 12:02:28;;;;;;;7.07;4.57;;;;;;;18.21;51.27;98720.19;4965120;28;20613;-56
2022/09/23 12:05:02;;;;;;;6.30;3.80;;;;;;;18.11;51.63;98718.72;4990761;28;20234;-55
2022/09/23 12:07:34;;;;;;;7.00;3.80;;;;;;;18.20;53.19;98714.09;4986407;28;20247;-57
2022/09/23 12:10:04;;;;;;;4.90;3.17;;;;;;;18.34;53.71;98717.59;4989172;28;20227;-56
2022/09/23 12:12:40;;;;;;;10.67;4.03;;;;;;;18.50;53.16;98713.78;4990822;28;20321;-57